Time;durP1;ratioP1;P1;durP2;ratioP2;P2;SDS_P1;SDS_P2;PMS_P1;PMS_P2;Temp;Humidity;BMP_temperature;BMP_pressure;BME280_temperature;BME280_humidity;BME280_pressure;Samples;Min_cycle;Max_cycle;Signal;HPM_P1;HPM_P2
2023/10/09 00:01:44;;;;;;;7.90;7.20;;;;;;;13.01;100.00;101665.03;6083068;23;20454;-75
2023/10/09 00:04:11;;;;;;;10.18;8.77;;;;;;;12.75;100.00;101627.59;6085911;23;20013;-74
2023/10/09 00:06:38;;;;;;;8.48;7.32;;;;;;;12.95;100.00;101664.41;6092767;23;20480;-74
2023/10/09 00:09:30;;;;;;;11.48;8.13;;;;;;;13.26;100.00;101710.38;6079468;23;20042;-74
2023/10/09 00:11:57;;;;;;;9.98;9.13;;;;;;;11.90;100.00;101497.19;6083177;23;20091;-75
2023/10/09 00:14:25;;;;;;;8.98;7.88;;;;;;;13.20;100.00;101713.31;6082132;23;20029;-74
2023/10/09 00:19:37;;;;;;;9.75;7.72;;;;;;;13.09;100.00;101705.91;6083516;23;20034;-73
2023/10/09 00:22:04;;;;;;;11.77;9.23;;;;;;;13.04;100.00;101702.63;6077309;23;20030;-75
2023/10/09 00:24:34;;;;;;;8.75;7.90;;;;;;;12.70;100.00;101645.38;6082970;23;20518;-73
2023/10/09 00:27:20;;;;;;;9.48;8.43;;;;;;;12.14;100.00;101571.53;6063821;23;20687;-73
2023/10/09 00:29:48;;;;;;;8.23;7.43;;;;;;;12.70;100.00;101672.56;6086112;23;20037;-73
2023/10/09 00:32:26;;;;;;;8.80;7.90;;;;;;;12.57;100.00;101642.47;6077723;23;20680;-74
2023/10/09 00:34:58;;;;;;;7.90;7.18;;;;;;;12.40;100.00;101613.41;6080887;23;20030;-74
2023/10/09 00:37:33;;;;;;;10.60;7.35;;;;;;;12.85;100.00;101683.31;6065259;23;20368;-73
2023/10/09 00:40:12;;;;;;;11.00;8.70;;;;;;;12.69;100.00;101681.41;6072688;23;20488;-74
2023/10/09 00:42:39;;;;;;;8.40;7.55;;;;;;;12.69;100.00;101680.53;6087148;23;20022;-73
2023/10/09 00:45:10;;;;;;;8.55;7.18;;;;;;;11.83;100.00;101553.59;6048906;23;20022;-74
2023/10/09 00:47:40;;;;;;;9.88;7.53;;;;;;;12.10;100.00;101587.53;6095143;23;20033;-74
2023/10/09 00:53:01;;;;;;;12.63;7.28;;;;;;;12.69;100.00;101670.00;6086201;23;20073;-73
2023/10/09 00:55:44;;;;;;;7.82;6.88;;;;;;;12.48;100.00;101619.16;6066799;23;20028;-73
2023/10/09 00:58:13;;;;;;;8.55;7.75;;;;;;;12.75;100.00;101664.47;6076127;23;20083;-74
2023/10/09 01:03:22;;;;;;;8.98;7.85;;;;;;;12.17;100.00;101560.03;6078680;23;20025;-74
2023/10/09 01:05:57;;;;;;;10.95;8.20;;;;;;;12.56;100.00;101617.88;6087404;23;20033;-74
2023/10/09 01:08:43;;;;;;;11.45;7.00;;;;;;;12.38;100.00;101590.63;6076979;23;20018;-73
2023/10/09 01:11:10;;;;;;;8.35;6.85;;;;;;;12.85;100.00;101644.69;6060335;23;20022;-73
2023/10/09 01:16:21;;;;;;;9.63;7.72;;;;;;;12.31;100.00;101551.50;6067289;23;20072;-74
2023/10/09 01:18:49;;;;;;;12.93;8.02;;;;;;;12.71;100.00;101599.69;6052272;23;20014;-73
2023/10/09 01:21:26;;;;;;;8.30;7.47;;;;;;;12.84;100.00;101616.63;6081446;23;20021;-75
2023/10/09 01:24:09;;;;;;;11.27;8.75;;;;;;;12.63;100.00;101575.47;6047387;23;20555;-73
2023/10/09 01:26:44;;;;;;;8.80;7.57;;;;;;;13.07;100.00;101644.53;6081092;23;20090;-73
2023/10/09 01:29:19;;;;;;;10.27;7.15;;;;;;;13.10;100.00;101631.19;6056951;23;20029;-73
2023/10/09 01:31:56;;;;;;;15.48;7.65;;;;;;;12.93;100.00;101597.75;6084691;23;20095;-72
2023/10/09 01:34:49;;;;;;;8.30;7.47;;;;;;;12.80;100.00;101577.31;6051297;23;20038;-72
2023/10/09 01:37:18;;;;;;;8.40;7.60;;;;;;;12.72;100.00;101562.72;6080761;23;20025;-72
2023/10/09 01:39:48;;;;;;;9.75;7.28;;;;;;;11.87;100.00;101507.81;6078316;23;20018;-71
2023/10/09 01:45:15;;;;;;;8.50;7.70;;;;;;;13.15;100.00;101623.94;6059966;23;20089;-72
2023/10/09 01:47:51;;;;;;;6.82;6.32;;;;;;;13.20;100.00;101625.47;6090630;23;20025;-72
2023/10/09 01:50:20;;;;;;;7.72;6.80;;;;;;;12.66;100.00;101533.19;6076028;23;20021;-72
2023/10/09 01:52:46;;;;;;;10.20;7.78;;;;;;;12.90;100.00;101578.59;6089891;23;20388;-72
2023/10/09 01:55:37;;;;;;;11.57;7.30;;;;;;;13.26;100.00;101631.31;6090652;23;20025;-71
2023/10/09 02:00:53;;;;;;;9.27;6.38;;;;;;;13.29;100.00;101632.94;6087614;23;20091;-71
2023/10/09 02:03:23;;;;;;;10.68;7.82;;;;;;;13.29;100.00;101638.19;6056976;23;20112;-72
2023/10/09 02:05:51;;;;;;;8.73;7.90;;;;;;;12.82;100.00;101559.66;6089893;23;20507;-72
2023/10/09 02:08:21;;;;;;;7.63;6.93;;;;;;;13.24;100.00;101634.94;6082152;23;20061;-72
2023/10/09 02:10:55;;;;;;;7.57;6.95;;;;;;;13.08;100.00;101613.75;6066354;23;20042;-72
2023/10/09 02:13:29;;;;;;;10.52;7.35;;;;;;;13.07;100.00;101623.44;6086856;23;20078;-72
2023/10/09 02:16:12;;;;;;;8.40;7.70;;;;;;;13.23;100.00;101662.22;6055022;23;20050;-72
2023/10/09 02:18:39;;;;;;;8.00;6.80;;;;;;;13.09;100.00;101616.31;6065918;23;20032;-72
2023/10/09 02:26:19;;;;;;;15.00;7.45;;;;;;;13.06;100.00;101627.00;6081475;23;23004;-72
2023/10/09 02:28:58;;;;;;;8.75;6.75;;;;;;;12.74;100.00;101607.44;6065660;23;20511;-72
2023/10/09 02:31:35;;;;;;;7.97;6.90;;;;;;;12.69;100.00;101612.94;6062610;23;20114;-73
2023/10/09 02:34:10;;;;;;;9.82;7.88;;;;;;;12.60;100.00;101565.09;6074569;23;20084;-73
2023/10/09 02:36:43;;;;;;;7.65;6.95;;;;;;;12.76;100.00;101598.53;6086552;23;20029;-73
2023/10/09 02:39:26;;;;;;;;;;;;;;;12.76;100.00;101590.63;6085071;23;20036;-72
2023/10/09 02:42:00;;;;;;;9.07;7.85;;;;;;;12.14;100.00;101505.75;6053899;23;20020;-72
2023/10/09 02:44:31;;;;;;;7.72;6.97;;;;;;;12.63;100.00;101573.72;6077695;23;20022;-71
2023/10/09 02:46:58;;;;;;;7.63;6.95;;;;;;;12.19;100.00;101500.28;6058368;23;20026;-71
2023/10/09 02:49:26;;;;;;;7.40;6.65;;;;;;;12.64;100.00;101585.94;6061303;23;20596;-72
2023/10/09 02:51:53;;;;;;;9.35;8.50;;;;;;;12.47;100.00;101555.13;6054847;23;20133;-71
2023/10/09 02:57:05;;;;;;;7.85;6.90;;;;;;;12.19;100.00;101497.66;6064008;23;20063;-72
2023/10/09 02:59:33;;;;;;;10.75;7.20;;;;;;;12.73;100.00;101587.31;6083183;23;20010;-71
2023/10/09 03:02:00;;;;;;;8.43;7.75;;;;;;;12.98;100.00;101626.50;6052432;23;20024;-72
2023/10/09 03:04:31;;;;;;;7.18;6.47;;;;;;;12.48;100.00;101538.41;6082887;23;20096;-72
2023/10/09 03:06:58;;;;;;;7.53;6.53;;;;;;;12.55;100.00;101545.09;6063296;23;20125;-72
2023/10/09 03:09:28;;;;;;;6.85;6.20;;;;;;;12.74;100.00;101581.94;6081045;23;20024;-71
2023/10/09 03:12:03;;;;;;;8.23;7.53;;;;;;;12.96;100.00;101602.84;6083234;23;20405;-73
2023/10/09 03:14:32;;;;;;;10.60;7.28;;;;;;;12.41;100.00;101510.66;6087930;23;20042;-71
2023/10/09 03:16:59;;;;;;;10.30;6.82;;;;;;;13.16;100.00;101628.25;6083488;23;20424;-71
2023/10/09 03:19:26;;;;;;;8.10;7.40;;;;;;;12.69;100.00;101554.09;6065020;23;20010;-72
2023/10/09 03:21:58;;;;;;;11.05;7.70;;;;;;;13.18;100.00;101625.56;6077569;23;20032;-72
2023/10/09 03:24:27;;;;;;;8.18;7.00;;;;;;;12.43;100.00;101500.03;6058744;23;20089;-73
2023/10/09 03:26:55;;;;;;;13.52;6.72;;;;;;;13.23;100.00;101620.91;6088420;23;20591;-73
2023/10/09 03:29:23;;;;;;;6.72;6.18;;;;;;;12.94;100.00;101569.63;6083790;23;20074;-73
2023/10/09 03:31:53;;;;;;;7.50;6.88;;;;;;;13.09;100.00;101595.22;6079319;23;20060;-72
2023/10/09 03:34:19;;;;;;;7.93;6.10;;;;;;;12.95;100.00;101563.44;6081710;23;20079;-72
2023/10/09 03:36:47;;;;;;;12.30;7.32;;;;;;;12.93;100.00;101567.91;6091143;23;20021;-73
2023/10/09 03:42:04;;;;;;;9.02;8.20;;;;;;;13.31;100.00;101618.78;6083233;23;21006;-71
2023/10/09 03:44:38;;;;;;;7.82;6.35;;;;;;;13.13;100.00;101585.41;6054930;23;20038;-72
2023/10/09 03:47:05;;;;;;;8.20;6.90;;;;;;;12.87;100.00;101562.91;6044738;23;20041;-72
2023/10/09 03:49:31;;;;;;;6.60;6.05;;;;;;;13.34;100.00;101615.16;6081671;23;20081;-72
2023/10/09 03:51:59;;;;;;;8.25;7.53;;;;;;;12.82;100.00;101549.97;6079987;23;20090;-72
2023/10/09 03:54:27;;;;;;;8.27;6.20;;;;;;;12.69;100.00;101531.28;6057509;23;20097;-72
2023/10/09 03:56:58;;;;;;;6.55;6.05;;;;;;;12.51;100.00;101479.50;6053224;23;20041;-72
2023/10/09 03:59:30;;;;;;;12.60;6.60;;;;;;;13.12;100.00;101583.69;6086363;23;20020;-73
2023/10/09 04:01:58;;;;;;;8.77;7.97;;;;;;;13.29;100.00;101599.56;6052431;23;20046;-72
2023/10/09 04:04:25;;;;;;;10.68;7.13;;;;;;;12.95;100.00;101532.66;6079568;23;20013;-71
2023/10/09 04:06:51;;;;;;;8.43;6.93;;;;;;;12.97;100.00;101532.59;6058198;23;20025;-71
2023/10/09 04:11:46;;;;;;;7.30;6.10;;;;;;;13.36;100.00;101592.19;6078893;23;20429;-71
2023/10/09 04:14:35;;;;;;;7.55;6.85;;;;;;;13.39;100.00;101596.47;6053202;23;20600;-72
2023/10/09 04:17:05;;;;;;;7.18;6.50;;;;;;;13.25;100.00;101581.28;6079170;23;20026;-71
2023/10/09 04:19:48;;;;;;;6.90;6.40;;;;;;;13.40;100.00;101600.81;6084235;23;20030;-71
2023/10/09 04:22:31;;;;;;;6.35;5.82;;;;;;;12.48;100.00;101443.63;6077270;23;20021;-72
2023/10/09 04:24:57;;;;;;;7.63;6.35;;;;;;;13.43;100.00;101590.09;6091573;23;20026;-72
2023/10/09 04:27:26;;;;;;;8.57;7.75;;;;;;;12.36;100.00;101439.78;6075643;23;20014;-73
2023/10/09 04:30:00;;;;;;;9.13;8.23;;;;;;;13.11;100.00;101545.94;6084247;23;20094;-72
2023/10/09 04:32:27;;;;;;;6.68;6.10;;;;;;;13.29;100.00;101569.66;6047633;23;20053;-73
2023/10/09 04:35:19;;;;;;;6.90;6.30;;;;;;;13.04;100.00;101520.81;6086534;23;20085;-73
2023/10/09 04:37:44;;;;;;;6.60;6.03;;;;;;;12.58;100.00;101449.31;6066433;23;20026;-72
2023/10/09 04:40:41;;;;;;;6.82;6.10;;;;;;;12.89;100.00;101495.19;6050923;23;20086;-72
2023/10/09 04:42:59;;;;;;;6.93;6.30;;;;;;;13.36;100.00;101565.84;6088776;23;20014;-73
2023/10/09 04:48:09;;;;;;;6.90;6.30;;;;;;;13.56;100.00;101586.78;6080199;23;20030;-73
2023/10/09 04:50:36;;;;;;;6.70;6.20;;;;;;;12.82;100.00;101470.94;6084209;23;20079;-72
2023/10/09 04:55:53;;;;;;;6.43;5.95;;;;;;;13.58;100.00;101584.06;6087749;23;20091;-71
2023/10/09 04:58:25;;;;;;;9.95;5.95;;;;;;;12.67;100.00;101432.19;6084740;23;20029;-72
2023/10/09 05:03:29;;;;;;;7.15;6.55;;;;;;;12.77;100.00;101439.56;6052483;23;20374;-72
2023/10/09 05:05:59;;;;;;;8.40;7.65;;;;;;;13.50;100.00;101557.22;6078671;23;20037;-72
2023/10/09 05:16:13;;;;;;;8.75;7.90;;;;;;;13.66;100.00;101558.16;6083096;23;20021;-71
2023/10/09 05:18:39;;;;;;;6.82;6.10;;;;;;;13.46;100.00;101538.06;6079386;23;20083;-74
2023/10/09 05:23:48;;;;;;;7.28;6.40;;;;;;;13.70;100.00;101558.84;6087678;23;20021;-73
2023/10/09 05:29:10;;;;;;;7.95;6.07;;;;;;;13.13;100.00;101456.25;6054202;23;20010;-73
2023/10/09 05:31:55;;;;;;;6.85;6.10;;;;;;;13.25;100.00;101481.13;6081563;23;20053;-73
2023/10/09 05:35:04;;;;;;;6.65;6.07;;;;;;;13.75;100.00;101554.16;6075916;23;20040;-73
2023/10/09 05:37:33;;;;;;;7.10;6.22;;;;;;;13.13;100.00;101446.56;6080290;23;20074;-73
2023/10/09 05:43:59;;;;;;;6.35;5.88;;;;;;;13.86;100.00;101562.41;6061021;23;20010;-74
2023/10/09 05:46:14;;;;;;;8.75;8.05;;;;;;;13.71;100.00;101531.53;6035904;23;20030;-73
2023/10/09 06:04:19;;;;;;;6.78;6.32;;;;;;;12.67;100.00;101297.88;6080693;23;20113;-76
2023/10/09 06:06:55;;;;;;;6.50;6.00;;;;;;;14.13;100.00;101532.81;6077805;23;20022;-76
2023/10/09 06:11:49;;;;;;;7.60;7.03;;;;;;;13.99;100.00;101491.34;6050731;23;20038;-74
2023/10/09 06:14:25;;;;;;;9.57;6.75;;;;;;;14.30;100.00;101542.50;6050591;23;20532;-74
2023/10/09 06:17:17;;;;;;;6.43;5.97;;;;;;;14.30;100.00;101540.69;6087822;23;20050;-74
2023/10/09 06:19:44;;;;;;;7.43;6.65;;;;;;;13.43;100.00;101393.22;6078379;23;20041;-74
2023/10/09 06:24:57;;;;;;;6.97;6.20;;;;;;;13.87;100.00;101469.13;6085946;23;20093;-75
2023/10/09 06:27:43;;;;;;;6.72;6.13;;;;;;;14.23;100.00;101531.44;6038253;23;20037;-75
2023/10/09 06:30:14;;;;;;;8.25;7.45;;;;;;;13.80;100.00;101470.38;6083192;23;20033;-72
2023/10/09 06:32:57;;;;;;;6.70;6.17;;;;;;;14.16;100.00;101514.19;6077414;23;20057;-72
2023/10/09 06:35:33;;;;;;;;;;;;;;;14.59;100.00;101567.31;6053208;23;20124;-72
2023/10/09 06:45:54;;;;;;;8.15;7.45;;;;;;;14.62;100.00;101542.56;6075544;23;20128;-72
2023/10/09 06:56:29;;;;;;;6.63;5.90;;;;;;;14.59;100.00;101527.69;6052390;23;20013;-71
2023/10/09 06:58:57;;;;;;;6.45;6.03;;;;;;;14.91;100.00;101549.69;6058087;23;20028;-72
2023/10/09 07:03:59;;;;;;;8.48;7.70;;;;;;;14.83;100.00;101506.97;6074312;23;20518;-73
2023/10/09 07:15:01;;;;;;;7.65;7.05;;;;;;;15.11;100.00;101537.97;6074416;23;21276;-74
2023/10/09 07:17:21;;;;;;;7.35;6.65;;;;;;;14.59;100.00;101452.88;6085450;23;20019;-74
2023/10/09 07:24:56;;;;;;;6.90;6.40;;;;;;;15.54;100.00;101561.91;6086248;23;20025;-74
2023/10/09 07:27:43;;;;;;;6.90;6.40;;;;;;;15.70;100.00;101542.47;6070005;23;20006;-74
2023/10/09 07:38:35;;;;;;;12.63;6.40;;;;;;;16.30;100.00;101457.56;6080010;23;20629;-74
2023/10/09 07:43:45;;;;;;;7.18;6.55;;;;;;;16.31;100.00;101406.25;6057568;23;20504;-73
2023/10/09 07:46:32;;;;;;;7.45;6.85;;;;;;;16.35;100.00;101407.75;6079120;23;20073;-73
2023/10/09 07:49:12;;;;;;;11.27;7.32;;;;;;;16.37;100.00;101405.00;6057424;23;20045;-73
2023/10/09 07:51:43;;;;;;;8.20;6.60;;;;;;;15.64;100.00;101267.66;6081756;23;20644;-74
2023/10/09 07:54:14;;;;;;;10.73;7.45;;;;;;;16.42;100.00;101391.50;6082138;23;20776;-75
2023/10/09 07:56:46;;;;;;;7.93;7.15;;;;;;;15.24;100.00;101196.16;6082176;23;20036;-73
2023/10/09 07:59:17;;;;;;;7.68;7.05;;;;;;;16.40;100.00;101382.75;6080863;23;20021;-73
2023/10/09 08:01:52;;;;;;;8.23;7.40;;;;;;;16.44;100.00;101376.34;6049100;23;20025;-73
2023/10/09 08:04:37;;;;;;;7.38;6.78;;;;;;;15.32;100.00;101181.47;6031082;23;20025;-74
2023/10/09 08:07:09;;;;;;;7.75;6.93;;;;;;;16.43;100.00;101324.28;6081041;23;20033;-74
2023/10/09 08:11:41;;;;;;;8.52;7.70;;;;;;;16.72;100.00;101368.25;6078348;23;20749;-72
2023/10/09 08:17:53;;;;;;;7.65;6.95;;;;;;;16.29;100.00;101243.09;6059164;23;20005;-74
2023/10/09 08:20:28;;;;;;;7.68;7.10;;;;;;;16.57;100.00;101275.66;6044700;23;20017;-74
2023/10/09 08:22:58;;;;;;;7.72;7.00;;;;;;;16.94;100.00;101316.44;6080660;23;20028;-74
2023/10/09 08:25:26;;;;;;;7.70;7.00;;;;;;;16.28;100.00;101183.16;6087629;23;20025;-74
2023/10/09 08:30:49;;;;;;;7.35;6.75;;;;;;;16.77;100.00;101216.00;6085690;23;20107;-74
2023/10/09 08:36:01;;;;;;;10.85;8.07;;;;;;;17.51;100.00;101354.91;6064097;23;20032;-75
2023/10/09 08:38:33;;;;;;;7.60;6.82;;;;;;;17.53;100.00;101380.38;6082025;23;20020;-74
2023/10/09 08:41:17;;;;;;;7.90;7.05;;;;;;;17.68;100.00;101370.47;6090029;23;20030;-75
2023/10/09 08:43:51;;;;;;;8.25;7.07;;;;;;;17.46;100.00;101301.28;6082555;23;20030;-74
2023/10/09 08:46:20;;;;;;;8.43;7.63;;;;;;;18.05;100.00;101351.06;6081399;23;20041;-74
2023/10/09 08:48:48;;;;;;;7.35;6.75;;;;;;;18.08;100.00;101301.22;6041195;23;20616;-74
2023/10/09 08:51:18;;;;;;;8.77;7.97;;;;;;;17.46;100.00;101177.44;6059622;23;20038;-73
2023/10/09 08:53:45;;;;;;;7.07;6.55;;;;;;;17.96;100.00;101227.78;6081220;23;20081;-74
2023/10/09 08:56:21;;;;;;;8.15;6.75;;;;;;;17.33;100.00;101131.53;6054224;23;20025;-75
2023/10/09 08:58:52;;;;;;;7.95;7.32;;;;;;;17.86;100.00;101219.66;6090170;23;20452;-73
2023/10/09 09:01:21;;;;;;;9.95;7.40;;;;;;;17.83;100.00;101225.16;6084282;23;20034;-74
2023/10/09 09:03:50;;;;;;;7.95;7.35;;;;;;;17.92;100.00;101236.91;6080435;23;20076;-74
2023/10/09 09:06:20;;;;;;;11.63;8.00;;;;;;;17.42;100.00;101160.06;6058179;23;20823;-74
2023/10/09 09:08:47;;;;;;;8.00;7.32;;;;;;;17.58;100.00;101180.13;6089858;23;20040;-75
2023/10/09 09:11:22;;;;;;;7.43;6.72;;;;;;;18.27;100.00;101262.66;6063638;23;20587;-74
2023/10/09 09:13:58;;;;;;;8.35;7.45;;;;;;;18.24;100.00;101212.38;6087388;23;20036;-74
2023/10/09 09:16:31;;;;;;;7.63;6.82;;;;;;;18.28;100.00;101187.28;6063179;23;20042;-75
2023/10/09 09:21:44;;;;;;;7.97;7.18;;;;;;;17.32;100.00;101076.81;6086397;23;20591;-71
2023/10/09 09:29:37;;;;;;;7.28;6.65;;;;;;;18.80;100.00;101145.16;6084957;23;20076;-74
2023/10/09 09:32:17;;;;;;;8.48;7.75;;;;;;;17.06;100.00;100805.59;6050438;23;20093;-75
2023/10/09 09:34:57;;;;;;;11.45;7.78;;;;;;;18.90;100.00;101090.25;6058458;23;20465;-74
2023/10/09 09:37:28;;;;;;;7.45;6.75;;;;;;;18.13;100.00;100998.06;6082710;23;20013;-75
2023/10/09 09:40:14;;;;;;;8.07;7.55;;;;;;;19.10;100.00;101059.38;6102187;17;20032;-71
2023/10/09 09:42:48;;;;;;;9.27;7.10;;;;;;;19.00;100.00;101013.22;6064133;23;20014;-72
2023/10/09 09:45:16;;;;;;;9.88;7.13;;;;;;;19.34;99.77;101056.50;6082187;23;20029;-72
2023/10/09 09:47:51;;;;;;;7.60;6.63;;;;;;;19.36;98.97;101030.59;6082092;23;20076;-72
2023/10/09 09:50:24;;;;;;;9.10;7.82;;;;;;;19.66;94.17;100989.88;6082897;23;20030;-72
2023/10/09 09:52:55;;;;;;;;;;;;;;;19.84;93.43;100994.63;6077088;23;20026;-72
2023/10/09 09:55:33;;;;;;;7.25;6.75;;;;;;;19.46;91.93;100938.34;6060543;23;20295;-71
2023/10/09 09:58:02;;;;;;;8.40;7.70;;;;;;;19.67;92.92;100998.72;6061478;23;20016;-72
2023/10/09 10:03:20;;;;;;;7.38;6.68;;;;;;;20.24;94.37;101071.91;6058366;23;20026;-72
2023/10/09 10:05:50;;;;;;;8.02;6.95;;;;;;;19.93;90.33;100952.06;6080464;23;20543;-73
2023/10/09 10:08:21;;;;;;;7.30;6.65;;;;;;;20.16;89.95;100961.66;6080114;23;20092;-72
2023/10/09 10:11:04;;;;;;;7.75;7.15;;;;;;;20.34;85.18;100888.03;6082318;23;20249;-71
2023/10/09 10:13:40;;;;;;;7.38;6.68;;;;;;;20.32;84.12;100914.84;6085393;23;20471;-72
2023/10/09 10:16:20;;;;;;;7.88;6.65;;;;;;;20.32;83.97;100901.50;6052003;23;20017;-71
2023/10/09 10:19:07;;;;;;;6.85;6.30;;;;;;;20.45;84.73;100946.56;6072885;23;20392;-72
2023/10/09 10:21:48;;;;;;;6.65;6.20;;;;;;;20.69;81.90;100894.69;6083204;23;20519;-72
2023/10/09 10:24:30;;;;;;;18.65;17.50;;;;;;;20.77;81.51;100897.50;5942178;23;20193;-71
2023/10/09 10:27:24;;;;;;;6.75;6.32;;;;;;;20.72;79.80;100857.91;6065760;23;20117;-74
2023/10/09 10:30:24;;;;;;;8.10;7.22;;;;;;;20.64;80.56;100889.78;6052699;23;20030;-71
2023/10/09 10:33:21;;;;;;;6.68;6.22;;;;;;;20.41;80.15;100841.19;6047275;23;20032;-72
2023/10/09 10:35:57;;;;;;;7.22;6.35;;;;;;;20.82;78.68;100859.72;6082667;23;20041;-71
2023/10/09 10:38:34;;;;;;;6.80;6.22;;;;;;;20.88;79.05;100909.84;6058688;23;20006;-72
2023/10/09 10:41:16;;;;;;;7.35;6.75;;;;;;;20.85;79.41;100934.16;6081657;23;20046;-71
2023/10/09 10:46:30;;;;;;;7.55;6.85;;;;;;;20.52;78.51;100891.69;6050435;23;20033;-71
2023/10/09 10:49:15;;;;;;;7.63;6.57;;;;;;;20.64;78.65;100944.94;6084537;23;20385;-72
2023/10/09 10:52:01;;;;;;;7.57;6.85;;;;;;;20.36;78.09;100888.75;6083894;23;20089;-72
2023/10/09 10:57:00;;;;;;;7.03;6.43;;;;;;;20.74;78.14;100975.13;6085617;23;20062;-74
2023/10/09 10:59:36;;;;;;;8.57;6.85;;;;;;;20.70;77.91;100971.03;6061716;23;20018;-71
2023/10/09 11:04:46;;;;;;;7.30;6.60;;;;;;;20.88;78.37;100995.19;6082813;23;20038;-74
2023/10/09 11:07:16;;;;;;;7.32;6.72;;;;;;;20.76;77.01;100933.16;6041666;23;20060;-71
2023/10/09 11:12:37;;;;;;;7.00;6.50;;;;;;;20.79;77.16;100978.22;6087159;23;20013;-71
2023/10/09 11:18:05;;;;;;;8.02;7.22;;;;;;;20.50;77.38;100916.81;6082125;23;20605;-71
2023/10/09 11:20:34;;;;;;;9.20;7.40;;;;;;;20.87;76.23;100956.19;6074063;23;20029;-71
2023/10/09 11:25:49;;;;;;;6.88;6.30;;;;;;;21.05;76.05;100975.84;6083156;23;20495;-72
2023/10/09 11:28:29;;;;;;;6.93;6.43;;;;;;;20.95;77.30;100991.00;6064073;23;20045;-72
2023/10/09 11:31:14;;;;;;;7.60;7.07;;;;;;;20.74;76.37;100923.59;6080455;23;20034;-72
2023/10/09 11:33:48;;;;;;;7.43;6.82;;;;;;;20.95;75.96;100975.00;6090722;23;20126;-70
2023/10/09 11:36:16;;;;;;;7.97;6.90;;;;;;;20.82;75.00;100927.25;6085582;23;20017;-73
2023/10/09 11:38:45;;;;;;;8.02;7.32;;;;;;;20.96;75.68;100970.50;6082209;23;20479;-71
2023/10/09 11:41:23;;;;;;;7.70;7.10;;;;;;;20.90;77.49;101020.75;6084354;23;20193;-71
2023/10/09 11:43:58;;;;;;;7.95;7.25;;;;;;;20.83;78.22;101016.97;6074935;23;20484;-72
2023/10/09 11:46:37;;;;;;;7.03;6.32;;;;;;;20.91;78.16;101011.78;6056784;23;20045;-71
2023/10/09 11:54:33;;;;;;;8.95;7.05;;;;;;;21.01;78.33;101041.13;6086120;23;20024;-72
2023/10/09 11:57:02;;;;;;;7.75;7.13;;;;;;;21.25;77.67;101034.53;6085128;23;20049;-71
2023/10/09 11:59:39;;;;;;;7.78;6.82;;;;;;;20.96;76.75;100968.66;6048993;23;20237;-71
2023/10/09 12:02:11;;;;;;;8.93;7.50;;;;;;;21.18;77.66;101036.91;6083182;23;20093;-71
2023/10/09 12:04:44;;;;;;;10.23;7.03;;;;;;;21.06;77.59;101008.69;6060220;23;20032;-72
2023/10/09 12:07:12;;;;;;;7.50;6.78;;;;;;;21.27;78.57;101070.78;6061133;23;20306;-72
2023/10/09 12:09:41;;;;;;;8.02;7.18;;;;;;;21.08;77.71;101022.72;6082840;23;20029;-71
2023/10/09 12:12:11;;;;;;;7.55;6.95;;;;;;;21.09;77.43;101019.94;6075685;23;20083;-71
2023/10/09 12:14:37;;;;;;;9.02;7.57;;;;;;;21.37;79.20;101107.31;6083452;23;20037;-73
2023/10/09 12:17:08;;;;;;;8.20;7.40;;;;;;;21.48;76.84;101029.75;6076896;23;20531;-71
2023/10/09 12:19:36;;;;;;;8.13;7.38;;;;;;;21.23;76.66;100980.47;6034201;23;20031;-71
2023/10/09 12:22:10;;;;;;;9.23;8.50;;;;;;;21.60;74.44;100966.34;6078114;23;20025;-72
2023/10/09 12:24:37;;;;;;;7.95;7.10;;;;;;;21.28;75.68;100963.00;6092467;23;20022;-72
2023/10/09 12:27:09;;;;;;;8.48;7.63;;;;;;;21.43;76.10;100979.47;6089600;23;20510;-72
2023/10/09 12:29:36;;;;;;;8.00;7.30;;;;;;;21.61;75.60;100992.91;6082805;23;20037;-72
2023/10/09 12:32:03;;;;;;;9.00;8.27;;;;;;;21.19;74.92;100885.63;6081821;23;20067;-73
2023/10/09 12:34:30;;;;;;;7.65;6.95;;;;;;;21.22;74.28;100907.53;6054850;23;20101;-72
2023/10/09 12:37:01;;;;;;;7.57;6.95;;;;;;;20.98;73.65;100873.31;6083485;23;20033;-72
2023/10/09 12:39:33;;;;;;;7.97;7.38;;;;;;;20.89;73.60;100869.69;6082624;23;20017;-72
2023/10/09 12:42:06;;;;;;;10.02;9.00;;;;;;;21.31;74.24;100943.22;6056500;23;20029;-71
2023/10/09 12:44:42;;;;;;;7.47;6.85;;;;;;;21.24;76.04;101014.16;6086771;23;20044;-72
2023/10/09 12:47:11;;;;;;;7.95;7.25;;;;;;;20.91;74.55;100930.91;6079004;23;20514;-72
2023/10/09 12:49:40;;;;;;;7.20;6.65;;;;;;;21.01;76.05;100968.25;6085401;23;20037;-71
2023/10/09 12:52:15;;;;;;;9.95;7.63;;;;;;;21.26;75.38;100994.34;6081204;23;20010;-71
2023/10/09 12:54:43;;;;;;;8.27;7.47;;;;;;;20.92;76.32;100984.09;6081374;23;20026;-72
2023/10/09 12:57:13;;;;;;;7.25;6.72;;;;;;;21.18;77.65;101028.91;6077862;23;20614;-72
2023/10/09 12:59:45;;;;;;;7.47;6.78;;;;;;;21.17;76.34;100981.88;6053749;23;20096;-70
2023/10/09 13:02:30;;;;;;;7.83;7.13;;;;;;;21.07;78.04;101026.41;6085295;23;20028;-71
2023/10/09 13:04:59;;;;;;;8.82;7.00;;;;;;;21.17;76.73;101011.22;6080024;23;20282;-72
2023/10/09 13:07:26;;;;;;;7.65;6.45;;;;;;;20.46;78.32;100958.06;6076284;23;20032;-73
2023/10/09 13:10:13;;;;;;;8.25;7.57;;;;;;;21.30;78.79;101091.84;6054404;23;20025;-72
2023/10/09 13:12:41;;;;;;;7.38;6.78;;;;;;;21.17;78.34;101056.59;6057718;23;20049;-72
2023/10/09 13:15:09;;;;;;;7.45;6.82;;;;;;;20.99;77.44;100988.88;6053684;23;20233;-73
2023/10/09 13:17:37;;;;;;;7.80;7.10;;;;;;;21.35;76.45;101027.38;6057153;23;20022;-72
2023/10/09 13:20:12;;;;;;;8.40;7.72;;;;;;;21.20;78.59;101087.50;6080952;23;20037;-71
2023/10/09 13:22:42;;;;;;;8.35;6.60;;;;;;;20.88;79.81;101075.25;6060571;23;20377;-71
2023/10/09 13:25:16;;;;;;;7.53;6.82;;;;;;;21.08;79.84;101110.81;6085099;23;20037;-73
2023/10/09 13:28:03;;;;;;;8.85;7.97;;;;;;;20.65;83.29;101111.97;6077703;23;20512;-71
2023/10/09 13:30:30;;;;;;;8.25;6.93;;;;;;;20.64;82.17;101095.13;6080911;23;20427;-72
2023/10/09 13:32:56;;;;;;;8.05;6.50;;;;;;;20.64;82.28;101102.28;6089991;23;20021;-71
2023/10/09 13:35:37;;;;;;;7.68;6.97;;;;;;;20.46;82.13;101076.22;6079402;23;20029;-72
2023/10/09 13:38:08;;;;;;;7.55;7.05;;;;;;;20.52;83.35;101105.00;6086900;23;20178;-72
2023/10/09 13:40:37;;;;;;;7.65;6.95;;;;;;;20.27;82.01;101031.69;6080528;23;20198;-71
2023/10/09 13:43:05;;;;;;;12.27;7.40;;;;;;;20.39;83.98;101098.25;6083238;23;20560;-71
2023/10/09 13:45:33;;;;;;;7.68;6.88;;;;;;;20.37;83.14;101082.38;6084029;23;20166;-71
2023/10/09 13:48:02;;;;;;;8.82;8.13;;;;;;;20.60;86.02;101197.69;6081360;23;20932;-72
2023/10/09 13:50:32;;;;;;;7.68;6.97;;;;;;;20.63;83.94;101121.94;6056307;23;20056;-72
2023/10/09 13:52:59;;;;;;;11.45;7.40;;;;;;;20.59;83.68;101110.69;6083937;23;20333;-72
2023/10/09 13:55:31;;;;;;;7.40;6.80;;;;;;;20.88;81.16;101080.56;6061520;23;20626;-72
2023/10/09 13:57:59;;;;;;;8.30;7.63;;;;;;;21.20;80.38;101098.16;6074974;23;20378;-71
2023/10/09 14:00:41;;;;;;;7.78;6.68;;;;;;;20.73;79.82;101005.44;6084648;23;20620;-71
2023/10/09 14:03:12;;;;;;;7.50;6.78;;;;;;;21.29;78.89;101051.97;6060749;23;20624;-71
2023/10/09 14:05:54;;;;;;;8.38;6.43;;;;;;;21.19;80.05;101072.44;6080692;23;20034;-72
2023/10/09 14:08:26;;;;;;;7.57;6.88;;;;;;;21.06;79.68;101062.91;6055839;23;20064;-72
2023/10/09 14:10:52;;;;;;;8.48;7.05;;;;;;;20.72;79.70;101017.91;6053586;23;20535;-71
2023/10/09 14:13:25;;;;;;;7.88;7.18;;;;;;;20.86;81.34;101066.53;6060998;23;20264;-72
2023/10/09 14:15:54;;;;;;;8.18;7.57;;;;;;;20.91;79.94;101072.31;6059167;23;20124;-72
2023/10/09 14:18:21;;;;;;;6.93;6.43;;;;;;;20.76;80.26;101047.00;6088509;23;20041;-71
2023/10/09 14:20:49;;;;;;;8.43;6.75;;;;;;;20.99;80.26;101085.81;6059671;23;20597;-71
2023/10/09 14:23:20;;;;;;;7.30;6.60;;;;;;;21.07;80.37;101119.81;6081227;23;20010;-72
2023/10/09 14:25:49;;;;;;;7.25;6.57;;;;;;;21.15;79.64;101095.06;6054463;23;20451;-72
2023/10/09 14:28:19;;;;;;;11.82;7.30;;;;;;;21.15;77.95;101044.34;6050529;23;20013;-71